• Join FlightAware (Why Join?)
  • Login
  • US Flag 
06:24PM EDT


 

Airport Tracker/Info


-or-


 

Live Flight TrackerFlight Track Log ✈ CTL22 ✈ 12-Jul-2013 ✈ KBKL - KGRR

Flight Track Log - Related Links

Times and Time Zones

All times are in EDT time to prevent confusion due to time zone crossing. See the CTL22 flight status page for this flight to view local times or setup timezone preferences in your user account.

Time Position Orientation Groundspeed Altitude Reporting Facility
EDT Latitude Longitude Course Direction KTS MPH feet Rate Location/Type
09:43PM 41.5606 -81.6847 350° North 127 146 2,300  Level Cleveland Center
09:44PM 41.5917 -81.7047 334° Northwest 142 163 3,100 960 Climbing Cleveland Center
09:45PM 41.6250 -81.7247 336° Northwest 134 154 4,100 840 Climbing Cleveland Center
09:46PM 41.6456 -81.7364 337° Northwest 139 160 4,500 780 Climbing Cleveland Center
09:47PM 41.6789 -81.7536 339° North 139 160 5,400 780 Climbing Cleveland Center
09:48PM 41.7056 -81.7903 314° West 144 166 6,100 300 Climbing Cleveland Center
09:49PM 41.7300 -81.8492 299° West 151 174 6,100  Level Cleveland Center
09:50PM 41.7500 -81.9081 294° West 173 199 6,100  Level Cleveland Center
09:51PM 41.7722 -81.9669 297° West 173 199 6,100  Level Cleveland Center
09:51PM 41.7944 -82.0258 297° West 179 206 6,100  Level Cleveland Center
09:53PM 41.8167 -82.0875 315° West 179 206 6,100  Level Cleveland Center
09:54PM 41.8367 -82.1467 294° West 179 206 6,100  Level Cleveland Center
09:55PM 41.8547 -82.2000 294° West 179 206 6,100  Level Cleveland Center
09:56PM 41.8769 -82.2592 297° West 179 206 6,100  Level Cleveland Center
09:57PM 41.9008 -82.3211 297° West 179 206 6,100  Level Cleveland Center
09:58PM 41.9250 -82.3778 300° West 179 206 6,100  Level Cleveland Center
09:59PM 41.9450 -82.4397 293° West 179 206 6,100  Level Cleveland Center
10:00PM 41.9689 -82.4989 299° West 179 206 6,100  Level Cleveland Center
10:01PM 41.9931 -82.5583 299° West 179 206 6,100  Level Cleveland Center
10:02PM 42.0192 -82.6150 302° West 179 206 6,100  Level Cleveland Center
10:03PM 42.0431 -82.6775 297° West 179 206 6,100  Level Cleveland Center
10:04PM 42.0689 -82.7397 299° West 179 206 6,100  Level Cleveland Center
10:05PM 42.0928 -82.7994 298° West 179 206 6,100  Level Cleveland Center
10:06PM 42.1167 -82.8617 297° West 179 206 6,100  Level Cleveland Center
10:07PM 42.1500 -82.9581 295° West 187 215 6,100  Level Cleveland Center
10:08PM 42.1675 -83.0206 291° West 185 213 6,100  Level Cleveland Center
10:09PM 42.1869 -83.0886 291° West 187 215 6,100  Level Cleveland Center
10:10PM 42.2106 -83.1539 296° West 184 212 6,100  Level Cleveland Center
10:11PM 42.2319 -83.2136 296° West 183 211 6,100  Level Cleveland Center
10:12PM 42.2514 -83.2789 292° West 183 211 6,100  Level Cleveland Center
10:13PM 42.2708 -83.3444 292° West 183 211 6,100  Level Cleveland Center
10:14PM 42.2922 -83.4042 296° West 179 206 6,100  Level Cleveland Center
10:15PM 42.3092 -83.4697 289° West 176 203 6,100  Level Cleveland Center
10:16PM 42.3244 -83.5264 290° West 171 197 6,100  Level Cleveland Center
10:17PM 42.3439 -83.5836 295° West 172 198 6,100  Level Cleveland Center
10:18PM 42.3631 -83.6464 292° West 176 203 6,100  Level Cleveland Center
10:20PM 42.3931 -83.7531 291° West 173 199 6,100  Level Chicago Center
10:21PM 42.4108 -83.8144 291° West 174 200 6,100  Level Chicago Center
10:22PM 42.4300 -83.8753 293° West 175 201 6,100  Level Chicago Center
10:23PM 42.4483 -83.9369 292° West 176 203 6,100  Level Chicago Center
10:24PM 42.4644 -83.9994 289° West 177 204 6,100  Level Chicago Center
10:25PM 42.4819 -84.0608 291° West 174 200 6,100  Level Chicago Center
10:26PM 42.5014 -84.1233 293° West 178 205 6,100  Level Chicago Center
10:27PM 42.5211 -84.1858 293° West 181 208 6,100  Level Chicago Center
10:28PM 42.5394 -84.2503 291° West 183 211 6,100  Level Chicago Center
10:29PM 42.5603 -84.3133 294° West 183 211 6,100  Level Chicago Center
10:30PM 42.5867 -84.3736 301° West 186 214 6,100  Level Chicago Center
10:31PM 42.6150 -84.4481 297° West 187 215 6,100  Level Chicago Center
10:32PM 42.6325 -84.5114 291° West 183 211 6,100  Level Chicago Center
10:33PM 42.6486 -84.5772 288° West 184 212 6,100  Level Chicago Center
10:34PM 42.6664 -84.6417 291° West 183 211 6,100  Level Chicago Center
10:35PM 42.6833 -84.7056 290° West 182 209 6,100  Level Chicago Center
10:36PM 42.6997 -84.7697 289° West 180 207 6,100  Level Chicago Center
10:37PM 42.7153 -84.8344 288° West 180 207 6,100  Level Chicago Center
10:38PM 42.7322 -84.8983 290° West 179 206 6,100  Level Chicago Center
10:39PM 42.7481 -84.9642 288° West 184 212 6,100  Level Chicago Center
10:40PM 42.7644 -85.0275 289° West 180 207 6,100 -660 Level Chicago Center
10:41PM 42.7825 -85.1136 286° West 193 222 4,800 -900 Descending Chicago Center
10:42PM 42.7994 -85.1861 288° West 202 232 4,300 -540 Descending Chicago Center
10:43PM 42.8153 -85.2531 288° West 192 221 3,800 -600 Descending Chicago Center
10:44PM 42.8322 -85.3233 288° West 194 223 3,100 -780 Descending Chicago Center
10:45PM 42.8478 -85.3908 287° West 190 219 2,300 -780 Descending Chicago Center
10:46PM 42.8664 -85.4569 291° West 188 216 1,600 -600 Descending Chicago Center
10:47PM 42.8803 -85.5083 290° West 167 192 1,100 -540 Descending Chicago Center
10:49PM 42.8667 -85.5167 270° West  Level FlightAware Approximate